createdAt,value
2023-06-19T00:11:59.991Z,19.50
2023-06-19T00:27:06.209Z,19.56
2023-06-19T00:42:11.881Z,19.75
2023-06-19T00:57:17.412Z,19.56
2023-06-19T01:12:29.532Z,19.25
2023-06-19T01:27:35.844Z,19.44
2023-06-19T01:42:43.316Z,19.31
2023-06-19T01:57:48.907Z,19.13
2023-06-19T02:12:54.501Z,19.06
2023-06-19T02:28:00.044Z,19.06
2023-06-19T02:43:05.597Z,19.00
2023-06-19T02:58:12.003Z,18.75
2023-06-19T03:13:17.698Z,19.06
2023-06-19T03:28:23.095Z,18.69
2023-06-19T03:43:28.646Z,18.81
2023-06-19T03:58:34.087Z,18.94
2023-06-19T04:13:40.030Z,19.19
2023-06-19T04:28:45.636Z,19.06
2023-06-19T04:43:51.194Z,19.19
2023-06-19T04:59:00.868Z,19.44
2023-06-19T05:14:06.831Z,19.81
2023-06-19T05:29:12.449Z,19.75
2023-06-19T05:44:18.217Z,20.06
2023-06-19T05:59:24.304Z,20.31
2023-06-19T06:14:29.941Z,20.13
2023-06-19T06:29:35.344Z,20.19
2023-06-19T06:44:40.896Z,20.63
2023-06-19T06:59:46.451Z,21.38
2023-06-19T07:14:55.584Z,22.31
2023-06-19T07:30:01.214Z,22.50
2023-06-19T07:45:07.938Z,22.31
2023-06-19T08:00:15.932Z,25.25
2023-06-19T08:15:21.469Z,27.88
2023-06-19T08:30:27.791Z,30.00
2023-06-19T08:45:33.651Z,30.81
2023-06-19T09:00:39.176Z,30.88
2023-06-19T09:15:44.661Z,31.38
2023-06-19T09:30:58.199Z,31.94
2023-06-19T09:46:04.669Z,30.44
2023-06-19T10:01:10.447Z,33.19
2023-06-19T10:16:25.511Z,33.75
2023-06-19T10:31:32.094Z,30.63
2023-06-19T10:46:39.021Z,30.06
2023-06-19T11:01:47.209Z,31.56
2023-06-19T11:16:52.862Z,29.50
2023-06-19T11:32:12.027Z,28.44
2023-06-19T11:47:20.594Z,28.19
2023-06-19T12:02:26.397Z,28.00
2023-06-19T12:17:32.807Z,27.56
2023-06-19T12:32:38.497Z,27.00
2023-06-19T12:47:44.284Z,27.63
2023-06-19T13:02:50.128Z,28.50
2023-06-19T13:17:56.052Z,28.88
2023-06-19T13:33:03.912Z,28.44
2023-06-19T13:48:10.766Z,28.06
2023-06-19T14:03:16.680Z,27.88
2023-06-19T14:18:22.617Z,27.75
2023-06-19T14:33:28.538Z,27.25
2023-06-19T14:48:34.684Z,27.25
2023-06-19T15:03:40.521Z,27.69
2023-06-19T15:18:47.712Z,27.06
2023-06-19T15:33:53.546Z,28.44
2023-06-19T15:49:00.151Z,27.56
2023-06-19T16:04:06.321Z,26.94
2023-06-19T16:19:12.095Z,26.88
2023-06-19T16:34:17.807Z,26.06
2023-06-19T16:49:23.825Z,26.06
2023-06-19T17:04:29.526Z,25.69
2023-06-19T17:19:35.142Z,25.63
2023-06-19T17:34:40.887Z,25.69
2023-06-19T17:49:46.456Z,25.13
2023-06-19T18:04:52.038Z,24.94
2023-06-19T18:19:57.575Z,24.75
2023-06-19T18:35:03.315Z,22.38
2023-06-19T18:50:12.764Z,21.88
2023-06-19T19:05:18.452Z,21.19
2023-06-19T19:20:24.122Z,21.31
2023-06-19T19:35:30.211Z,20.81
2023-06-19T19:50:35.713Z,21.19
2023-06-19T20:05:41.439Z,21.00
2023-06-19T20:20:47.054Z,20.69
2023-06-19T20:35:52.503Z,20.63
2023-06-19T20:50:58.610Z,20.31
2023-06-19T21:06:04.094Z,20.69
2023-06-19T21:21:09.448Z,20.69
2023-06-19T21:36:15.091Z,20.00
2023-06-19T21:51:20.521Z,20.44
2023-06-19T22:06:26.016Z,20.69
2023-06-19T22:21:31.874Z,20.25
2023-06-19T22:36:37.410Z,20.44
2023-06-19T22:51:43.214Z,20.44
2023-06-19T23:06:49.004Z,20.31
2023-06-19T23:21:55.729Z,20.38
2023-06-19T23:37:01.286Z,20.25
2023-06-19T23:52:08.200Z,20.13
